»·PEaware :: N78KQ KSMX-KSAC

N78KQ :: KSMX-KSAC

FLIGHT INFORMATION

Flight Status: Arrived
Operator: Privately registered:
United States
More flights under this callsign
Pilot: Maurice C. (12314)
Aircraft: Unknown
(KODI)
More flights by this aircraft type
Origin: KSMX Santa Maria Pub/Capt Hancock
United States
Destination: KSAC Sacramento Executive
United States
More flights between these airports :: More routes between these airports
Route: +
File this flight plan on PilotEdge
Remarks:
Altitude:
(Current/Filed)
8,500ft
Speed:
(Current/Filed)
0kts
Departed: 19-Sep-17 10:17 AM
Arrived: 19-Sep-17 11:08 AM
Distance/Time
Traveled:
223nm/0:51
Distance/Time
To Go:
Arrived

Flight Plot

Page will automatically refresh every two minutes.

Flight plan parsing failed; only flown route is shown


Map Options




Map Legend


Flown Route
Filed Route
Departure Airport
Arrival Airport
Navaid (VOR, NDB)
Fix

Horizontal Profiles

Position Reports

Time Latitude Longitude Heading Altitude Ground
Speed
19-Sep-17 10:20 36.485580 -120.809836 346 8550ft 120kts
19-Sep-17 10:21 36.518921 -120.815775 346 8467ft 122kts
19-Sep-17 10:22 36.552240 -120.821764 346 8467ft 120kts
19-Sep-17 10:23 36.584691 -120.827619 346 8467ft 120kts
19-Sep-17 10:24 36.617998 -120.830164 341 8468ft 119kts
19-Sep-17 10:25 36.650020 -120.840055 341 8466ft 119kts
19-Sep-17 10:26 36.683900 -120.850573 341 8479ft 142kts
19-Sep-17 10:27 36.724232 -120.863422 341 8461ft 154kts
19-Sep-17 10:28 36.766508 -120.876730 341 8452ft 157kts
19-Sep-17 10:29 36.808918 -120.889724 341 8444ft 157kts
19-Sep-17 10:30 36.852080 -120.902839 341 8447ft 166kts
19-Sep-17 10:31 36.897411 -120.916780 341 8444ft 168kts
19-Sep-17 10:32 36.942871 -120.930774 341 8444ft 168kts
19-Sep-17 10:33 36.988335 -120.944781 341 8444ft 169kts
19-Sep-17 10:34 37.034463 -120.959178 341 8448ft 172kts
19-Sep-17 10:35 37.081106 -120.974102 342 8451ft 175kts
19-Sep-17 10:36 37.117788 -120.986091 342 8453ft 176kts
19-Sep-17 10:37 37.165433 -121.001664 342 8451ft 177kts
19-Sep-17 10:38 37.212940 -121.016863 342 8448ft 176kts
19-Sep-17 10:39 37.260411 -121.031742 342 8446ft 176kts
19-Sep-17 10:40 37.307983 -121.046400 342 8445ft 175kts
19-Sep-17 10:41 37.355247 -121.060868 342 8445ft 174kts
19-Sep-17 10:42 37.402078 -121.075145 342 8445ft 174kts
19-Sep-17 10:43 37.448721 -121.089322 342 8445ft 173kts
19-Sep-17 10:44 37.493659 -121.102822 342 8437ft 152kts
19-Sep-17 10:45 37.532280 -121.114029 342 8443ft 146kts
19-Sep-17 10:46 37.571586 -121.125379 342 8444ft 145kts
19-Sep-17 10:47 37.610528 -121.136616 342 8472ft 144kts
19-Sep-17 10:48 37.649456 -121.147899 342 8473ft 143kts
19-Sep-17 10:49 37.687296 -121.158972 342 8479ft 147kts
19-Sep-17 10:50 37.730145 -121.172071 342 8481ft 166kts
19-Sep-17 10:51 37.774247 -121.188925 339 8479ft 166kts
19-Sep-17 10:52 37.817393 -121.206221 339 8479ft 165kts
19-Sep-17 10:53 37.860519 -121.223554 339 8479ft 165kts
19-Sep-17 10:54 37.903586 -121.240856 339 8479ft 165kts
19-Sep-17 10:55 37.946797 -121.258210 339 8478ft 165kts
19-Sep-17 10:56 37.989447 -121.275338 339 8478ft 165kts
19-Sep-17 10:57 38.032911 -121.292786 339 8478ft 165kts
19-Sep-17 10:58 38.076262 -121.310185 339 8478ft 165kts
19-Sep-17 10:59 38.113577 -121.325376 339 8469ft 166kts
19-Sep-17 11:00 38.155048 -121.342965 339 7788ft 155kts
19-Sep-17 11:01 38.194850 -121.360762 339 6987ft 150kts
19-Sep-17 11:02 38.233850 -121.379150 339 6193ft 151kts
19-Sep-17 11:03 38.271637 -121.397625 339 5147ft 140kts
19-Sep-17 11:04 38.304327 -121.413865 339 4478ft 103kts
19-Sep-17 11:05 38.333547 -121.428473 339 4511ft 131kts
19-Sep-17 11:06 38.368809 -121.445942 339 4317ft 144kts
19-Sep-17 11:07 38.404905 -121.460651 348 3952ft 147kts
19-Sep-17 11:08 38.438329 -121.469499 348 3263ft 105kts
19-Sep-17 11:09 38.459473 -121.477836 334 2200ft 110kts
19-Sep-17 11:10 38.482438 -121.490798 344 838ft 112kts
19-Sep-17 11:11 38.502429 -121.493858 355 232ft 81kts
19-Sep-17 11:12 38.511276 -121.494470 275 23ft 2kts
19-Sep-17 11:13 38.511339 -121.496997 273 23ft 15kts
19-Sep-17 11:14 38.512700 -121.497723 204 23ft 0kts
19-Sep-17 11:15 38.512700 -121.497723 204 23ft 0kts
19-Sep-17 11:16 38.512700 -121.497723 204 23ft 0kts
19-Sep-17 11:17 38.512700 -121.497723 204 23ft 0kts
19-Sep-17 11:18 38.512700 -121.497723 204 23ft 0kts

Navigation Log

Ident Type
Flight plan parsing failed, navigation log unavailable